Time;durP1;ratioP1;P1;durP2;ratioP2;P2;SDS_P1;SDS_P2;PMS_P1;PMS_P2;Temp;Humidity;BMP_temperature;BMP_pressure;BME280_temperature;BME280_humidity;BME280_pressure;Samples;Min_cycle;Max_cycle;Signal;HPM_P1;HPM_P2
2023/04/03 00:00:57;;;;;;;3.10;2.40;;;7.80;88.10;;;;;;4979872;28;20506;-82
2023/04/03 00:03:55;;;;;;;2.50;2.30;;;7.70;88.40;;;;;;4960948;28;20471;-80
2023/04/03 00:06:44;;;;;;;3.47;2.90;;;8.00;89.70;;;;;;5021148;28;20423;-80
2023/04/03 00:13:19;;;;;;;3.50;2.60;;;8.00;89.50;;;;;;4988759;28;20463;-81
2023/04/03 00:16:23;;;;;;;5.17;2.90;;;7.80;89.80;;;;;;4993717;28;20439;-83
2023/04/03 00:23:16;;;;;;;2.20;2.00;;;7.70;90.10;;;;;;5015771;28;20427;-81
2023/04/03 00:26:11;;;;;;;2.63;2.43;;;7.70;90.60;;;;;;5049426;28;20457;-81
2023/04/03 00:29:10;;;;;;;5.23;2.47;;;7.80;90.60;;;;;;5050212;28;20467;-82
2023/04/03 00:33:06;;;;;;;2.50;2.30;;;7.70;90.80;;;;;;5040280;28;20480;-81
2023/04/03 00:35:57;;;;;;;4.30;2.87;;;7.70;91.00;;;;;;5035460;28;20456;-82
2023/04/03 00:42:16;;;;;;;4.67;3.07;;;7.70;91.30;;;;;;5023787;28;20436;-83
2023/04/03 00:44:44;;;;;;;3.20;2.90;;;7.60;91.20;;;;;;5027864;28;20480;-82
2023/04/03 00:47:36;;;;;;;2.60;2.40;;;7.50;91.30;;;;;;5039515;28;20543;-83
2023/04/03 00:50:39;;;;;;;2.77;2.57;;;7.50;91.70;;;;;;5036285;28;20470;-83
2023/04/03 00:54:11;;;;;;;4.60;3.00;;;7.40;91.80;;;;;;5012491;28;20461;-83
2023/04/03 00:56:48;;;;;;;4.00;2.90;;;7.40;92.00;;;;;;5031484;28;20564;-82
2023/04/03 00:59:51;;;;;;;3.33;2.97;;;7.50;91.90;;;;;;5025981;28;20480;-84
2023/04/03 01:02:28;;;;;;;2.90;2.70;;;7.40;91.60;;;;;;5040876;28;20536;-84
2023/04/03 01:09:12;;;;;;;2.93;2.60;;;7.30;90.10;;;;;;5019375;28;20473;-82
2023/04/03 01:15:39;;;;;;;3.17;2.50;;;7.10;90.20;;;;;;4952797;28;20484;-81
2023/04/03 01:19:01;;;;;;;4.90;2.53;;;7.10;90.10;;;;;;4925821;29;20484;-82
2023/04/03 01:22:25;;;;;;;2.30;2.20;;;7.10;90.30;;;;;;4895873;29;20494;-83
2023/04/03 01:25:27;;;;;;;2.27;2.07;;;7.10;90.20;;;;;;4886440;29;20553;-84
2023/04/03 01:28:24;;;;;;;2.07;1.87;;;6.90;90.10;;;;;;4900817;29;20533;-82
2023/04/03 01:31:38;;;;;;;2.43;2.23;;;6.80;90.20;;;;;;4912226;29;20478;-83
2023/04/03 01:34:40;;;;;;;2.83;2.10;;;6.90;90.60;;;;;;4908492;29;20453;-84
2023/04/03 01:37:24;;;;;;;2.73;2.17;;;7.10;89.90;;;;;;4904260;29;20450;-83
2023/04/03 01:39:58;;;;;;;3.23;2.23;;;7.10;88.80;;;;;;4907370;29;20497;-84
2023/04/03 01:46:13;;;;;;;4.40;2.30;;;7.20;88.50;;;;;;4938896;28;20512;-84
2023/04/03 01:49:38;;;;;;;3.60;2.13;;;7.10;88.80;;;;;;4957385;28;20897;-85
2023/04/03 01:52:47;;;;;;;;;;;;;;;;;;;;;
2023/04/03 01:59:52;;;;;;;6.33;2.03;;;6.90;90.20;;;;;;4977451;28;20566;-84
2023/04/03 02:02:58;;;;;;;2.80;2.60;;;6.80;90.20;;;;;;5041818;28;20453;-84
2023/04/03 02:06:00;;;;;;;3.43;2.50;;;6.80;90.50;;;;;;5028092;28;20447;-83
2023/04/03 02:08:51;;;;;;;3.07;2.70;;;6.80;91.00;;;;;;5038484;28;20502;-82
2023/04/03 02:11:40;;;;;;;2.43;2.27;;;6.80;91.40;;;;;;4975379;28;20506;-83
2023/04/03 02:14:29;;;;;;;;;;;;;;;;;;;;;
2023/04/03 02:17:15;;;;;;;3.17;2.77;;;7.00;92.00;;;;;;4974708;28;20477;-83
2023/04/03 02:20:16;;;;;;;2.90;2.70;;;6.80;91.90;;;;;;4971876;28;20523;-84
2023/04/03 02:23:41;;;;;;;;;;;;;;;;;;;;;
2023/04/03 02:30:03;;;;;;;3.63;3.07;;;7.00;92.00;;;;;;4988013;28;20462;-82
2023/04/03 02:33:30;;;;;;;5.43;3.60;;;6.70;91.90;;;;;;4976956;28;20488;-81
2023/04/03 02:39:38;;;;;;;4.20;3.30;;;6.40;92.60;;;;;;4988048;28;20482;-81
2023/04/03 02:42:44;;;;;;;2.33;2.23;;;6.60;92.50;;;;;;4977580;28;20459;-83
2023/04/03 02:46:18;;;;;;;;;;;;;;;;;;;;;
2023/04/03 02:49:10;;;;;;;3.73;2.70;;;6.50;92.60;;;;;;5031643;28;20468;-81
2023/04/03 02:52:17;;;;;;;4.07;3.70;;;6.50;92.70;;;;;;5037552;28;20454;-81
2023/04/03 02:58:36;;;;;;;2.97;2.77;;;6.60;92.50;;;;;;5031941;28;20473;-82
2023/04/03 03:01:36;;;;;;;3.23;2.97;;;6.60;92.40;;;;;;5031211;28;20406;-82
2023/04/03 03:04:31;;;;;;;3.27;2.97;;;6.40;92.60;;;;;;5040664;28;20470;-81
2023/04/03 03:07:21;;;;;;;4.27;3.10;;;6.50;92.90;;;;;;5032287;28;20456;-84
2023/04/03 03:10:01;;;;;;;3.23;2.93;;;6.40;92.70;;;;;;5045945;28;20481;-84
2023/04/03 03:16:23;;;;;;;3.30;2.83;;;6.30;93.10;;;;;;5008964;28;20447;-81
2023/04/03 03:19:12;;;;;;;2.87;2.63;;;6.20;93.00;;;;;;4997812;28;20535;-84
2023/04/03 03:22:03;;;;;;;2.83;2.53;;;6.40;93.10;;;;;;5068291;28;20432;-82
2023/04/03 03:25:04;;;;;;;3.70;3.30;;;6.50;92.70;;;;;;5056863;28;20485;-82
2023/04/03 03:28:12;;;;;;;3.53;3.17;;;6.20;92.40;;;;;;5046976;28;20449;-82
2023/04/03 03:30:54;;;;;;;2.60;2.50;;;6.20;92.50;;;;;;5045895;28;20968;-82
2023/04/03 03:33:54;;;;;;;3.10;2.80;;;6.10;92.70;;;;;;5030943;28;20477;-83
2023/04/03 03:36:59;;;;;;;4.27;2.90;;;6.20;92.70;;;;;;5021028;28;20595;-82
2023/04/03 03:39:37;;;;;;;3.57;2.83;;;6.20;92.60;;;;;;5026231;28;20489;-82
2023/04/03 03:42:29;;;;;;;2.60;2.40;;;6.20;92.20;;;;;;5046308;28;20534;-82
2023/04/03 03:45:25;;;;;;;3.00;2.80;;;6.00;91.80;;;;;;5026804;28;20861;-81
2023/04/03 03:48:23;;;;;;;3.10;2.80;;;6.10;92.10;;;;;;5025039;28;20448;-82
2023/04/03 03:51:27;;;;;;;3.23;2.93;;;6.20;92.20;;;;;;5005877;28;20469;-82
2023/04/03 03:54:38;;;;;;;3.10;2.80;;;6.20;92.10;;;;;;5037404;28;20474;-82
2023/04/03 03:57:41;;;;;;;7.60;3.43;;;6.10;92.30;;;;;;5021409;28;20519;-81
2023/04/03 04:00:35;;;;;;;3.93;2.83;;;6.10;92.30;;;;;;5031960;28;20868;-82
2023/04/03 04:03:46;;;;;;;2.70;2.50;;;6.00;92.30;;;;;;5029690;28;20483;-81
2023/04/03 04:10:43;;;;;;;3.03;2.83;;;5.90;92.10;;;;;;4964417;28;20540;-83
2023/04/03 04:17:05;;;;;;;7.73;2.53;;;5.80;92.30;;;;;;4926021;29;20459;-81
2023/04/03 04:19:50;;;;;;;6.20;3.10;;;5.70;92.20;;;;;;4934094;29;20492;-83
2023/04/03 04:22:53;;;;;;;2.53;2.30;;;5.60;92.50;;;;;;4932323;29;20489;-82
2023/04/03 04:26:04;;;;;;;2.57;2.37;;;5.50;92.80;;;;;;4870698;29;20482;-84
2023/04/03 04:28:55;;;;;;;5.30;2.60;;;5.60;92.80;;;;;;4898556;29;20698;-83
2023/04/03 04:31:43;;;;;;;4.30;2.90;;;5.80;92.20;;;;;;4930288;29;20537;-84
2023/04/03 04:35:15;;;;;;;2.40;2.20;;;5.70;92.00;;;;;;4931523;29;20454;-80
2023/04/03 04:38:18;;;;;;;3.50;2.30;;;5.50;92.20;;;;;;4948999;28;20512;-83
2023/04/03 04:41:17;;;;;;;3.00;2.70;;;5.50;92.40;;;;;;4973675;28;20455;-83
2023/04/03 04:48:16;;;;;;;1.80;1.70;;;5.40;92.60;;;;;;4990685;28;20467;-83
2023/04/03 04:51:34;;;;;;;1.80;1.70;;;5.50;92.90;;;;;;5026851;28;20458;-83
2023/04/03 04:55:03;;;;;;;4.77;2.77;;;5.50;93.00;;;;;;5019416;28;20466;-83
2023/04/03 04:58:32;;;;;;;3.53;2.13;;;5.50;93.00;;;;;;4995927;28;20437;-82
2023/04/03 05:01:51;;;;;;;2.53;2.33;;;5.60;92.30;;;;;;5030051;28;20469;-84
2023/04/03 05:05:06;;;;;;;2.93;2.37;;;5.50;92.40;;;;;;5052445;22;21078;-84
2023/04/03 05:07:36;;;;;;;5.27;2.07;;;5.40;92.60;;;;;;5037293;28;20455;-83
2023/04/03 05:10:25;;;;;;;2.17;1.90;;;5.30;93.00;;;;;;5050390;28;20451;-83
2023/04/03 05:13:35;;;;;;;2.80;2.37;;;5.30;93.00;;;;;;5048423;28;20487;-82
2023/04/03 05:16:57;;;;;;;2.50;1.60;;;5.50;93.30;;;;;;5040755;28;20453;-83
2023/04/03 05:20:05;;;;;;;3.43;1.80;;;5.50;92.90;;;;;;5031693;28;20473;-82
2023/04/03 05:23:05;;;;;;;3.03;2.13;;;5.30;92.90;;;;;;5034537;28;20479;-83
2023/04/03 05:29:46;;;;;;;5.00;2.50;;;5.40;92.90;;;;;;5039559;28;20566;-81
2023/04/03 05:32:50;;;;;;;2.40;2.20;;;5.40;93.10;;;;;;5034592;28;20495;-82
2023/04/03 05:35:59;;;;;;;2.13;2.03;;;5.50;92.60;;;;;;5036328;28;20444;-84
2023/04/03 05:39:02;;;;;;;;;;;;;;;;;;;;;
2023/04/03 05:41:46;;;;;;;4.00;2.37;;;5.40;92.60;;;;;;4969754;28;20997;-82
2023/04/03 05:48:13;;;;;;;3.60;2.30;;;5.40;92.80;;;;;;4974267;28;20448;-82
2023/04/03 05:50:49;;;;;;;3.13;2.20;;;5.60;93.00;;;;;;4964176;28;20511;-81
2023/04/03 05:53:38;;;;;;;2.83;2.60;;;5.70;92.80;;;;;;4955494;28;20531;-82
2023/04/03 05:56:22;;;;;;;5.47;2.03;;;5.70;92.50;;;;;;4952988;28;20433;-82
2023/04/03 05:59:23;;;;;;;2.40;2.10;;;6.40;92.70;;;;;;4960493;28;20481;-83
2023/04/03 06:02:23;;;;;;;4.40;2.53;;;7.10;90.40;;;;;;5037737;28;20500;-84
2023/04/03 06:12:29;;;;;;;3.40;2.03;;;8.70;85.20;;;;;;5030127;28;20524;-83
2023/04/03 06:15:32;;;;;;;2.47;1.70;;;9.60;84.20;;;;;;5040787;28;20461;-82
2023/04/03 06:18:21;;;;;;;3.70;2.10;;;12.20;77.90;;;;;;4961159;28;20451;-82
2023/04/03 06:21:21;;;;;;;4.77;2.67;;;14.50;64.00;;;;;;4958057;28;20460;-83
2023/04/03 06:27:59;;;;;;;;;;;;;;;;;;;;;
2023/04/03 06:31:15;;;;;;;2.03;1.57;;;18.50;50.50;;;;;;4947438;28;20448;-83
2023/04/03 06:34:15;;;;;;;2.07;1.67;;;19.20;47.00;;;;;;4964592;28;20488;-82
2023/04/03 06:36:59;;;;;;;2.13;1.73;;;19.50;46.90;;;;;;4964693;28;20431;-82
2023/04/03 06:40:25;;;;;;;6.00;2.30;;;20.20;45.50;;;;;;4900436;29;20485;-82
2023/04/03 06:43:17;;;;;;;4.93;2.80;;;20.50;43.20;;;;;;4926857;28;20472;-82
2023/04/03 06:46:06;;;;;;;3.03;1.80;;;21.10;41.40;;;;;;4965311;28;20517;-83
2023/04/03 06:49:15;;;;;;;;;;;;;;;;;;;;;
2023/04/03 06:52:08;;;;;;;1.53;1.30;;;21.30;40.00;;;;;;4973540;28;20501;-84
2023/04/03 06:55:27;;;;;;;2.37;1.60;;;21.30;39.40;;;;;;4990942;28;20455;-84
2023/04/03 06:58:44;;;;;;;3.80;1.70;;;20.80;38.80;;;;;;5003409;28;20548;-83
2023/04/03 07:01:37;;;;;;;1.73;1.53;;;20.50;39.60;;;;;;5040231;28;20465;-83
2023/04/03 07:07:55;;;;;;;1.77;1.63;;;17.80;43.30;;;;;;5027655;28;20553;-82
2023/04/03 07:10:56;;;;;;;;;;;;;;;;;;;;;
2023/04/03 07:14:03;;;;;;;4.60;1.67;;;14.90;45.80;;;;;;5040575;28;20483;-83
2023/04/03 07:17:33;;;;;;;3.63;1.80;;;16.70;46.70;;;;;;5035832;28;20433;-82
2023/04/03 07:24:41;;;;;;;4.20;1.60;;;20.70;40.60;;;;;;4955290;28;20526;-84
2023/04/03 07:28:12;;;;;;;2.00;1.53;;;21.40;38.10;;;;;;5037771;28;20483;-84
2023/04/03 07:31:28;;;;;;;;;;;;;;;;;;;;;
2023/04/03 07:35:03;;;;;;;1.70;1.23;;;22.20;36.70;;;;;;5029794;28;20465;-83
2023/04/03 07:38:07;;;;;;;4.23;1.60;;;22.50;35.30;;;;;;5037880;28;20498;-83
2023/04/03 07:41:32;;;;;;;3.10;1.47;;;22.60;35.90;;;;;;5051716;28;20479;-82
2023/04/03 07:44:48;;;;;;;2.37;1.90;;;23.30;35.50;;;;;;5011601;28;20449;-82
2023/04/03 07:47:31;;;;;;;3.03;1.57;;;23.30;34.30;;;;;;5057029;28;20471;-82
2023/04/03 07:50:53;;;;;;;1.73;1.30;;;23.40;33.70;;;;;;5030531;28;20433;-83
2023/04/03 07:57:23;;;;;;;4.13;1.70;;;22.10;34.20;;;;;;5047686;28;20416;-83
2023/04/03 08:00:35;;;;;;;3.70;1.80;;;23.20;33.60;;;;;;5053031;28;20477;-83
2023/04/03 08:03:39;;;;;;;2.17;1.50;;;23.30;33.60;;;;;;5058751;28;20471;-83
2023/04/03 08:06:40;;;;;;;1.80;1.40;;;23.50;33.70;;;;;;5068407;28;20451;-82
2023/04/03 08:09:44;;;;;;;3.50;2.07;;;23.70;32.60;;;;;;4991458;28;20434;-81
2023/04/03 08:12:36;;;;;;;5.07;2.03;;;22.70;32.60;;;;;;4998295;28;20564;-82
2023/04/03 08:15:39;;;;;;;3.70;1.40;;;22.70;33.50;;;;;;5007438;28;20533;-85
2023/04/03 08:18:31;;;;;;;2.63;1.57;;;22.70;33.80;;;;;;4983102;28;20443;-84
2023/04/03 08:22:16;;;;;;;2.60;1.43;;;23.70;33.10;;;;;;4993548;28;20935;-82
2023/04/03 08:25:32;;;;;;;;;;;;;;;;;;;;;
2023/04/03 08:28:28;;;;;;;2.73;1.43;;;20.30;31.90;;;;;;5003815;28;20459;-83
2023/04/03 08:31:19;;;;;;;1.73;1.27;;;20.20;33.50;;;;;;4975244;28;20519;-83
2023/04/03 08:34:34;;;;;;;3.57;1.40;;;20.50;32.30;;;;;;5004133;28;21287;-84
2023/04/03 08:37:30;;;;;;;4.67;1.77;;;18.60;32.90;;;;;;5043922;28;20437;-82
2023/04/03 08:40:25;;;;;;;2.30;1.30;;;18.90;34.60;;;;;;5012811;28;20487;-83
2023/04/03 08:43:56;;;;;;;1.00;0.90;;;18.00;33.90;;;;;;5015426;28;20446;-83
2023/04/03 08:47:32;;;;;;;1.70;1.50;;;17.60;34.20;;;;;;5039089;28;20424;-83
2023/04/03 08:50:34;;;;;;;1.50;1.00;;;18.00;34.60;;;;;;5042480;28;20465;-84
2023/04/03 08:57:12;;;;;;;1.40;1.07;;;17.60;34.90;;;;;;5046351;28;20477;-82
2023/04/03 09:00:17;;;;;;;1.70;1.10;;;14.60;37.60;;;;;;5038062;28;20579;-84
2023/04/03 09:03:35;;;;;;;2.70;1.20;;;12.80;40.60;;;;;;5035951;28;20481;-84
2023/04/03 09:06:32;;;;;;;1.53;1.20;;;11.80;42.40;;;;;;5027813;28;20537;-82
2023/04/03 09:09:43;;;;;;;1.87;1.30;;;11.20;44.00;;;;;;5038979;28;20483;-83
2023/04/03 09:13:01;;;;;;;2.00;1.00;;;11.00;45.00;;;;;;5030558;28;20437;-85
2023/04/03 09:15:49;;;;;;;1.73;1.17;;;13.10;43.90;;;;;;5037796;28;21072;-84
2023/04/03 09:19:05;;;;;;;2.90;1.10;;;15.50;40.20;;;;;;5026979;28;20524;-84
2023/04/03 09:21:51;;;;;;;2.03;0.93;;;16.80;37.20;;;;;;5024012;28;20428;-83
2023/04/03 09:25:37;;;;;;;2.97;1.60;;;17.00;35.40;;;;;;5040826;28;20459;-86
2023/04/03 09:28:19;;;;;;;2.00;1.00;;;17.10;36.00;;;;;;4998604;28;20442;-85
2023/04/03 09:31:45;;;;;;;2.10;1.40;;;17.60;35.60;;;;;;4978449;28;20451;-84
2023/04/03 09:34:50;;;;;;;1.00;0.90;;;18.00;35.00;;;;;;5040005;28;20508;-85
2023/04/03 09:41:53;;;;;;;2.70;1.33;;;17.70;33.30;;;;;;5034457;28;20949;-84
2023/04/03 09:49:07;;;;;;;1.70;1.10;;;19.40;32.80;;;;;;5002634;28;20462;-83
2023/04/03 09:52:31;;;;;;;3.23;1.00;;;18.70;30.40;;;;;;4991671;28;20492;-82
2023/04/03 09:55:29;;;;;;;2.53;0.73;;;18.00;31.10;;;;;;5058624;28;20428;-82
2023/04/03 10:02:05;;;;;;;;;;;;;;;;;;;;;
2023/04/03 10:05:49;;;;;;;;;;;;;;;;;;;;;
2023/04/03 10:08:42;;;;;;;1.80;1.20;;;17.60;31.60;;;;;;5048893;28;20449;-83
2023/04/03 10:11:48;;;;;;;3.43;1.60;;;17.30;30.50;;;;;;5034417;28;20457;-84
2023/04/03 10:15:26;;;;;;;2.47;1.00;;;16.80;30.00;;;;;;5050225;28;20491;-83
2023/04/03 10:18:44;;;;;;;1.87;1.33;;;17.00;31.40;;;;;;4957710;28;20460;-83
2023/04/03 10:21:50;;;;;;;1.93;1.10;;;17.80;31.90;;;;;;4918762;28;20497;-85
2023/04/03 10:25:25;;;;;;;1.10;0.97;;;18.20;29.90;;;;;;5013390;28;20536;-83
2023/04/03 10:28:41;;;;;;;1.03;1.00;;;18.40;28.50;;;;;;5008302;28;21048;-83
2023/04/03 10:32:20;;;;;;;2.87;0.60;;;18.30;28.50;;;;;;5000797;28;20849;-83
2023/04/03 10:35:22;;;;;;;2.00;1.50;;;17.60;28.90;;;;;;4973949;28;20528;-83
2023/04/03 10:42:52;;;;;;;2.17;1.00;;;18.20;29.20;;;;;;5000278;28;20446;-83
2023/04/03 10:45:47;;;;;;;1.93;1.03;;;17.90;27.30;;;;;;4995205;28;20473;-82
2023/04/03 10:52:41;;;;;;;2.20;0.90;;;17.90;27.90;;;;;;5026217;28;20561;-83
2023/04/03 10:55:51;;;;;;;1.27;1.00;;;16.70;27.90;;;;;;5044442;28;20491;-84
2023/04/03 10:58:36;;;;;;;1.17;1.07;;;16.90;28.70;;;;;;5046066;28;20449;-83
2023/04/03 11:02:04;;;;;;;1.00;0.77;;;16.80;28.30;;;;;;5040484;28;20476;-83
2023/04/03 11:05:57;;;;;;;1.60;0.80;;;16.40;28.20;;;;;;4968060;28;20436;-82
2023/04/03 11:08:50;;;;;;;2.37;1.00;;;15.50;28.40;;;;;;4959127;28;20867;-84
2023/04/03 11:11:52;;;;;;;2.40;0.90;;;15.50;29.20;;;;;;4949126;28;20446;-83
2023/04/03 11:15:07;;;;;;;2.60;1.10;;;15.80;29.10;;;;;;4977420;28;20469;-82
2023/04/03 11:18:12;;;;;;;1.17;0.70;;;16.30;29.10;;;;;;4956929;28;20456;-84
2023/04/03 11:22:01;;;;;;;1.70;1.10;;;16.20;29.40;;;;;;4979171;28;20483;-82
2023/04/03 11:24:38;;;;;;;1.00;0.90;;;16.50;29.60;;;;;;5029816;28;20508;-82
2023/04/03 11:27:30;;;;;;;1.30;1.00;;;16.80;29.40;;;;;;5037878;28;20868;-82
2023/04/03 11:34:34;;;;;;;3.33;1.10;;;17.00;31.50;;;;;;4999897;28;20480;-83
2023/04/03 11:37:48;;;;;;;2.17;1.33;;;16.90;30.20;;;;;;5047196;28;20565;-82
2023/04/03 11:40:44;;;;;;;0.97;0.70;;;17.70;29.40;;;;;;5040067;28;20481;-84
2023/04/03 11:43:36;;;;;;;1.20;0.73;;;17.70;28.20;;;;;;5044253;28;21057;-83
2023/04/03 11:46:11;;;;;;;3.30;1.77;;;17.40;28.90;;;;;;5042277;28;20441;-83
2023/04/03 11:48:59;;;;;;;1.50;1.07;;;17.50;28.70;;;;;;5051900;28;20467;-81
2023/04/03 11:51:46;;;;;;;2.07;0.97;;;17.70;27.90;;;;;;5063836;28;20671;-82
2023/04/03 11:54:46;;;;;;;1.10;0.90;;;17.80;28.60;;;;;;5049892;28;20502;-82
2023/04/03 11:57:58;;;;;;;1.10;1.00;;;17.60;28.80;;;;;;5055137;28;20477;-81
2023/04/03 12:01:03;;;;;;;0.77;0.60;;;17.30;28.30;;;;;;5048390;28;20473;-81
2023/04/03 12:04:20;;;;;;;1.13;0.90;;;16.90;28.20;;;;;;5060479;28;20491;-83
2023/04/03 12:07:29;;;;;;;1.33;1.10;;;17.30;28.20;;;;;;5053706;28;20465;-82
2023/04/03 12:10:26;;;;;;;1.13;0.77;;;17.20;28.20;;;;;;5040617;28;20457;-83
2023/04/03 12:13:28;;;;;;;0.90;0.73;;;16.90;28.80;;;;;;5057814;28;20547;-82
2023/04/03 12:16:06;;;;;;;1.27;1.10;;;16.70;28.00;;;;;;5043272;28;20467;-84
2023/04/03 12:18:56;;;;;;;0.60;0.60;;;16.60;27.80;;;;;;5049520;28;20479;-83
2023/04/03 12:21:56;;;;;;;;;;;;;;;;;;;;;
2023/04/03 12:25:10;;;;;;;1.63;0.80;;;17.10;27.50;;;;;;5053683;28;20577;-83
2023/04/03 12:28:18;;;;;;;1.97;0.67;;;17.30;27.90;;;;;;5010017;28;20533;-83
2023/04/03 12:31:12;;;;;;;1.30;0.90;;;17.60;27.70;;;;;;5042643;28;20444;-84
2023/04/03 12:33:59;;;;;;;1.93;0.83;;;17.40;28.10;;;;;;5041359;28;20468;-83
2023/04/03 12:37:02;;;;;;;1.20;0.90;;;17.20;27.50;;;;;;5029347;28;21040;-83
2023/04/03 12:40:33;;;;;;;1.70;0.83;;;17.30;27.80;;;;;;5039019;28;20440;-82
2023/04/03 12:47:44;;;;;;;1.80;0.90;;;17.70;28.30;;;;;;5018444;28;20445;-83
2023/04/03 12:50:38;;;;;;;2.30;0.77;;;17.40;28.20;;;;;;5021690;28;20452;-83
2023/04/03 12:53:34;;;;;;;1.10;0.80;;;17.60;28.60;;;;;;5046742;28;20508;-85
2023/04/03 13:00:15;;;;;;;0.97;0.87;;;17.80;28.50;;;;;;5057046;28;20467;-83
2023/04/03 13:03:08;;;;;;;1.73;0.70;;;18.00;28.10;;;;;;5043637;28;20492;-83
2023/04/03 13:06:20;;;;;;;1.30;1.20;;;18.40;29.00;;;;;;5038833;28;20529;-83
2023/04/03 13:09:36;;;;;;;0.97;0.80;;;18.40;28.80;;;;;;5041330;28;20437;-83
2023/04/03 13:12:38;;;;;;;1.00;0.90;;;18.30;27.60;;;;;;5047257;28;20513;-82
2023/04/03 13:15:37;;;;;;;0.97;0.97;;;17.90;27.80;;;;;;5041629;28;21320;-82
2023/04/03 13:18:34;;;;;;;1.30;1.10;;;18.10;28.40;;;;;;5048700;28;20912;-82
2023/04/03 13:21:43;;;;;;;1.20;0.97;;;18.20;27.70;;;;;;5026199;28;20520;-85
2023/04/03 13:24:38;;;;;;;;;;;;;;;;;;;;;
2023/04/03 13:27:43;;;;;;;1.40;1.30;;;18.90;27.70;;;;;;5042142;28;20446;-83
2023/04/03 13:31:02;;;;;;;2.47;1.10;;;18.30;27.70;;;;;;5039214;28;20455;-82
2023/04/03 13:33:56;;;;;;;2.60;1.13;;;18.20;27.80;;;;;;5030875;28;20492;-84
2023/04/03 13:37:22;;;;;;;2.43;1.17;;;17.80;28.50;;;;;;5037835;28;20444;-82
2023/04/03 13:43:48;;;;;;;2.40;1.40;;;18.20;27.90;;;;;;5042131;28;20473;-84
2023/04/03 13:46:44;;;;;;;4.03;1.03;;;18.20;28.00;;;;;;5029907;28;20437;-83
2023/04/03 13:49:51;;;;;;;2.40;1.10;;;17.60;28.70;;;;;;5034538;28;20508;-83
2023/04/03 13:56:03;;;;;;;2.20;1.10;;;17.70;28.80;;;;;;5125820;22;20492;-83
2023/04/03 13:58:56;;;;;;;1.10;1.00;;;17.20;29.60;;;;;;5041193;28;20949;-83
2023/04/03 14:01:49;;;;;;;1.00;0.90;;;17.40;29.60;;;;;;5044073;28;20850;-82
2023/04/03 14:05:08;;;;;;;;;;;;;;;;;;;;;
2023/04/03 14:07:39;;;;;;;1.33;1.17;;;17.10;28.40;;;;;;5051018;28;20446;-82
2023/04/03 14:10:23;;;;;;;1.57;1.13;;;17.10;29.10;;;;;;5049856;28;20455;-82
2023/04/03 14:13:23;;;;;;;3.07;1.30;;;16.90;29.20;;;;;;5061152;28;20921;-83
2023/04/03 14:16:30;;;;;;;2.67;1.17;;;16.80;29.50;;;;;;5041891;28;20458;-82
2023/04/03 14:20:06;;;;;;;2.70;1.80;;;16.90;30.00;;;;;;5038296;28;20492;-83
2023/04/03 14:22:46;;;;;;;1.50;1.40;;;17.20;30.30;;;;;;5022832;28;20476;-83
2023/04/03 14:25:45;;;;;;;;;;;;;;;;;;;;;
2023/04/03 14:28:29;;;;;;;3.87;3.50;;;16.70;30.00;;;;;;5024928;28;20454;-83
2023/04/03 14:31:35;;;;;;;2.03;1.20;;;16.90;31.10;;;;;;5017984;28;21163;-83
2023/04/03 14:34:23;;;;;;;2.23;1.53;;;16.70;30.50;;;;;;5028692;28;20465;-83
2023/04/03 14:37:35;;;;;;;2.07;1.03;;;16.60;31.30;;;;;;5024522;28;20574;-83
2023/04/03 14:40:15;;;;;;;2.43;1.23;;;16.50;30.90;;;;;;4983006;28;20472;-84
2023/04/03 14:42:51;;;;;;;2.93;1.50;;;16.50;31.50;;;;;;5034832;28;20773;-83
2023/04/03 14:45:55;;;;;;;2.50;1.37;;;16.40;32.40;;;;;;5027354;28;21007;-80
2023/04/03 14:48:38;;;;;;;1.07;0.93;;;15.80;31.10;;;;;;5032420;28;20519;-83
2023/04/03 14:51:40;;;;;;;;;;;;;;;;;;;;;
2023/04/03 14:54:55;;;;;;;1.87;1.50;;;15.00;33.10;;;;;;4993898;28;20459;-83
2023/04/03 14:58:16;;;;;;;2.80;1.00;;;15.10;33.50;;;;;;5034103;28;20464;-82
2023/04/03 15:00:57;;;;;;;2.03;1.17;;;15.10;34.20;;;;;;5029287;28;20509;-82
2023/04/03 15:03:42;;;;;;;1.43;0.87;;;15.30;33.50;;;;;;5050093;28;20555;-84
2023/04/03 15:06:22;;;;;;;1.73;1.40;;;15.40;32.90;;;;;;5034265;28;20544;-81
2023/04/03 15:09:11;;;;;;;2.03;1.03;;;15.60;33.00;;;;;;5023047;28;21198;-84
2023/04/03 15:11:43;;;;;;;1.73;1.10;;;15.50;31.70;;;;;;5033846;28;20460;-82
2023/04/03 15:14:31;;;;;;;2.00;0.93;;;15.50;32.60;;;;;;5028798;28;20859;-83
2023/04/03 15:17:38;;;;;;;;;;;;;;;;;;;;;
2023/04/03 15:20:26;;;;;;;1.37;1.27;;;15.50;32.30;;;;;;5032828;28;20464;-83
2023/04/03 15:23:05;;;;;;;1.47;0.87;;;15.80;33.20;;;;;;5020992;28;20485;-81
2023/04/03 15:25:39;;;;;;;1.50;1.20;;;15.70;32.70;;;;;;5027353;28;20516;-83
2023/04/03 15:28:50;;;;;;;1.37;1.00;;;15.80;33.20;;;;;;5033337;28;20448;-83
2023/04/03 15:34:27;;;;;;;1.30;1.20;;;15.60;33.40;;;;;;5043364;28;20475;-83
2023/04/03 15:37:03;;;;;;;1.57;1.10;;;15.30;32.10;;;;;;5031362;28;20502;-83
2023/04/03 15:39:36;;;;;;;2.50;1.20;;;15.10;33.20;;;;;;5030597;28;20548;-83
2023/04/03 15:42:19;;;;;;;1.07;0.90;;;15.10;33.60;;;;;;5030524;28;20476;-82
2023/04/03 15:45:02;;;;;;;1.90;1.10;;;15.00;33.10;;;;;;5024814;28;20556;-82
2023/04/03 15:47:44;;;;;;;1.43;1.30;;;14.80;33.50;;;;;;5035436;28;20503;-84
2023/04/03 15:50:23;;;;;;;1.60;1.27;;;14.80;33.40;;;;;;5034448;28;20457;-82
2023/04/03 15:52:58;;;;;;;1.10;1.00;;;14.40;32.20;;;;;;5030789;28;20484;-84
2023/04/03 15:55:29;;;;;;;1.40;1.30;;;14.40;33.10;;;;;;5031216;28;20454;-84
2023/04/03 15:58:06;;;;;;;4.33;1.30;;;14.50;33.50;;;;;;5026402;28;20449;-82
2023/04/03 16:01:34;;;;;;;1.77;1.40;;;14.70;33.10;;;;;;5033966;28;21125;-83
2023/04/03 16:04:28;;;;;;;1.77;1.50;;;14.90;33.60;;;;;;5026079;28;20586;-84
2023/04/03 16:07:12;;;;;;;1.40;1.30;;;15.00;34.00;;;;;;5026922;28;20487;-85
2023/04/03 16:09:56;;;;;;;2.03;1.43;;;15.10;34.30;;;;;;5034195;28;20449;-84
2023/04/03 16:12:39;;;;;;;;;;;;;;;;;;;;;
2023/04/03 16:15:31;;;;;;;2.20;1.00;;;14.70;35.20;;;;;;5032305;28;20511;-82
2023/04/03 16:21:24;;;;;;;2.10;1.37;;;14.50;35.10;;;;;;5026935;28;20492;-83
2023/04/03 16:24:04;;;;;;;1.10;1.00;;;14.40;34.60;;;;;;5035828;28;20475;-83
2023/04/03 16:26:31;;;;;;;1.27;1.07;;;14.00;34.40;;;;;;5023646;28;21009;-83
2023/04/03 16:29:04;;;;;;;1.53;0.90;;;13.80;34.60;;;;;;5024768;28;20869;-84
2023/04/03 16:31:46;;;;;;;1.53;1.27;;;13.60;35.10;;;;;;5035372;28;20499;-83
2023/04/03 16:34:40;;;;;;;2.70;1.67;;;13.40;36.00;;;;;;5046182;28;20523;-83
2023/04/03 16:37:20;;;;;;;2.33;1.47;;;13.40;36.00;;;;;;5040058;28;20463;-83
2023/04/03 16:40:04;;;;;;;1.47;1.10;;;13.50;36.70;;;;;;5043244;28;20452;-83
2023/04/03 16:42:45;;;;;;;1.20;1.10;;;13.40;35.60;;;;;;5051527;28;20480;-82
2023/04/03 16:45:37;;;;;;;2.67;1.10;;;13.10;35.30;;;;;;5048311;28;20450;-81
2023/04/03 16:48:25;;;;;;;1.70;1.00;;;13.20;36.30;;;;;;5016532;28;20446;-84
2023/04/03 16:51:01;;;;;;;3.17;1.40;;;13.10;35.90;;;;;;5047082;28;20450;-83
2023/04/03 16:53:39;;;;;;;1.80;1.40;;;13.00;36.20;;;;;;5049446;28;20528;-81
2023/04/03 16:56:14;;;;;;;1.73;1.50;;;12.90;36.50;;;;;;5051406;28;20524;-81
2023/04/03 16:58:51;;;;;;;1.07;0.97;;;12.90;36.30;;;;;;5046110;28;20428;-82
2023/04/03 17:01:33;;;;;;;1.10;1.00;;;12.80;36.90;;;;;;5057158;28;20492;-80
2023/04/03 17:04:13;;;;;;;2.33;1.30;;;12.90;38.30;;;;;;5052072;28;20491;-84
2023/04/03 17:07:22;;;;;;;1.37;1.00;;;12.90;37.20;;;;;;5047647;28;20454;-82
2023/04/03 17:10:16;;;;;;;2.20;1.10;;;12.70;37.80;;;;;;5020685;28;20449;-83
2023/04/03 17:12:54;;;;;;;4.10;1.10;;;12.50;38.90;;;;;;5036278;28;20560;-82
2023/04/03 17:16:13;;;;;;;1.73;1.37;;;12.50;39.20;;;;;;5038438;28;20461;-82
2023/04/03 17:19:00;;;;;;;2.83;1.20;;;12.50;40.20;;;;;;5025604;28;20449;-81
2023/04/03 17:21:43;;;;;;;1.93;1.27;;;12.50;39.60;;;;;;5029379;28;20512;-82
2023/04/03 17:24:19;;;;;;;1.90;1.33;;;12.50;40.20;;;;;;5037219;28;21003;-83
2023/04/03 17:26:49;;;;;;;1.63;1.23;;;12.60;40.10;;;;;;5027128;28;20460;-81
2023/04/03 17:29:46;;;;;;;4.33;1.93;;;12.60;39.60;;;;;;5029948;28;20449;-85
2023/04/03 17:33:07;;;;;;;3.73;1.13;;;12.40;40.00;;;;;;5039502;28;20440;-81
2023/04/03 17:36:32;;;;;;;2.23;1.43;;;12.30;39.80;;;;;;5031708;28;20469;-83
2023/04/03 17:39:32;;;;;;;2.73;1.13;;;12.30;40.10;;;;;;5026593;28;20516;-83
2023/04/03 17:43:12;;;;;;;1.63;1.43;;;12.30;40.60;;;;;;5034361;28;20469;-83
2023/04/03 17:46:29;;;;;;;1.67;1.43;;;12.20;40.10;;;;;;4931653;28;20443;-83
2023/04/03 17:49:53;;;;;;;1.83;1.47;;;12.10;39.50;;;;;;4958569;28;20463;-83
2023/04/03 17:55:59;;;;;;;1.90;1.40;;;12.10;40.90;;;;;;4962661;28;20453;-83
2023/04/03 17:59:08;;;;;;;1.37;1.27;;;12.00;40.50;;;;;;4895705;29;21240;-82
2023/04/03 18:02:15;;;;;;;3.63;1.30;;;11.90;40.20;;;;;;4882712;29;20480;-83
2023/04/03 18:05:49;;;;;;;1.87;1.17;;;12.00;40.80;;;;;;3956005;29;27811190;-84
2023/04/03 18:08:53;;;;;;;;;;;;;;;;;;;;;
2023/04/03 18:12:18;;;;;;;5.40;1.60;;;11.80;41.50;;;;;;4829525;29;20446;-83
2023/04/03 18:15:14;;;;;;;5.17;1.57;;;11.80;41.30;;;;;;4794654;29;20446;-83
2023/04/03 18:22:30;;;;;;;2.50;1.27;;;11.50;41.30;;;;;;5667572;22;20596;-83
2023/04/03 18:26:00;;;;;;;1.70;1.60;;;11.30;42.90;;;;;;5026550;28;20536;-85